ETD16 KPIT-OMAA
Flight info
| Callsign | ETD16 |
|---|---|
| Flight time | N/A |
| Altitude | 31000 |
| Route | EWC DCT ZORBO DCT SYR DCT CABCI DCT MIILS/N0490F330 N441B ELSIR/M083F340 DCT 50N050W 52N040W 54N030W 55N020W DCT RESNO DCT NETKI/N0475F350 DCT CON DCT MORAG DCT NUCHU DCT BOGNA UL612 XAMAB DCT VEULE DCT INPAX DCT RESMI DCT ODEBU DCT OGULO DCT OKASI DCT OKEKO DCT MOU DCT MADIV DCT MOKIP DCT TUFTA DCT KOGAS/N0473F370 DCT MEDAM DCT NITAM DCT MOGBO DCT BELIX DCT SALUN N705 MMA P751 DASUM Y234 FYM M872 BOPOB/N0478F390 M872 BDB Y214 RAPMA DCT KUVSO DCT KATIT DCT DANUX DCT TANSU/N0502F330 G783 VAVIM P899 ROVOS |
| Aircraft | A346/H-SDE2E3FGHIJ3J4J5M1RWXY/LB1D1 |
Departure
| Time | 2026-05-04 03:33 |
|---|---|
| Airport | Pittsburgh International Airport (KPIT) |
Arrival
| Time | N/A |
|---|---|
| Airport | Zayed International Airport (OMAA) |
| Time | Latitude | Longitude | Altitude | Speed | Heading |
|---|---|---|---|---|---|
| 2026-05-04 03:13 | 40.49658 | -80.22122 | 1163 ft | 0 kts | 226° |
| 2026-05-04 03:27 | 40.49657 | -80.22125 | 1163 ft | 1 kts | 226° |
| 2026-05-04 03:27 | 40.49646 | -80.22138 | 1162 ft | 3 kts | 219° |
| 2026-05-04 03:28 | 40.49620 | -80.22161 | 1161 ft | 5 kts | 213° |
| 2026-05-04 03:28 | 40.49583 | -80.22191 | 1161 ft | 6 kts | 198° |
| 2026-05-04 03:28 | 40.49532 | -80.22171 | 1161 ft | 9 kts | 141° |
| 2026-05-04 03:28 | 40.49481 | -80.22113 | 1161 ft | 10 kts | 137° |
| 2026-05-04 03:29 | 40.49430 | -80.22051 | 1160 ft | 10 kts | 136° |
| 2026-05-04 03:29 | 40.49372 | -80.21980 | 1161 ft | 13 kts | 137° |
| 2026-05-04 03:29 | 40.49303 | -80.21897 | 1160 ft | 14 kts | 137° |
| 2026-05-04 03:29 | 40.49232 | -80.21808 | 1160 ft | 15 kts | 136° |
| 2026-05-04 03:30 | 40.49149 | -80.21708 | 1156 ft | 17 kts | 139° |
| 2026-05-04 03:30 | 40.49057 | -80.21604 | 1154 ft | 18 kts | 139° |
| 2026-05-04 03:30 | 40.48993 | -80.21477 | 1152 ft | 17 kts | 102° |
| 2026-05-04 03:30 | 40.48983 | -80.21323 | 1153 ft | 17 kts | 91° |
| 2026-05-04 03:31 | 40.48979 | -80.21171 | 1153 ft | 16 kts | 92° |
| 2026-05-04 03:31 | 40.48976 | -80.21022 | 1150 ft | 16 kts | 93° |
| 2026-05-04 03:31 | 40.48919 | -80.20937 | 1152 ft | 12 kts | 203° |
| 2026-05-04 03:31 | 40.48894 | -80.21007 | 1151 ft | 0 kts | 272° |
| 2026-05-04 03:32 | 40.48895 | -80.21048 | 1150 ft | 24 kts | 272° |
| 2026-05-04 03:32 | 40.48908 | -80.21568 | 1151 ft | 88 kts | 272° |
| 2026-05-04 03:32 | 40.48935 | -80.22631 | 1154 ft | 143 kts | 272° |
| 2026-05-04 03:32 | 40.48971 | -80.24163 | 1156 ft | 188 kts | 272° |
| 2026-05-04 03:33 | 40.49061 | -80.26098 | 1653 ft | 193 kts | 272° |
| 2026-05-04 03:33 | 40.49153 | -80.27903 | 2522 ft | 185 kts | 270° |
| 2026-05-04 03:33 | 40.49229 | -80.29564 | 3337 ft | 177 kts | 270° |
| 2026-05-04 03:33 | 40.49301 | -80.31145 | 3918 ft | 175 kts | 271° |
| 2026-05-04 03:34 | 40.49635 | -80.32736 | 4125 ft | 195 kts | 302° |
| 2026-05-04 03:34 | 40.50868 | -80.33755 | 4321 ft | 227 kts | 343° |
| 2026-05-04 03:34 | 40.52507 | -80.33546 | 4519 ft | 257 kts | 20° |
| 2026-05-04 03:34 | 40.54079 | -80.32261 | 4798 ft | 271 kts | 26° |
| 2026-05-04 03:35 | 40.55819 | -80.31350 | 5080 ft | 277 kts | 8° |
| 2026-05-04 03:35 | 40.57759 | -80.30780 | 5383 ft | 290 kts | 7° |
| 2026-05-04 03:35 | 40.59761 | -80.30183 | 5837 ft | 297 kts | 9° |
| 2026-05-04 03:35 | 40.61773 | -80.29496 | 6475 ft | 299 kts | 11° |
| 2026-05-04 03:36 | 40.63789 | -80.28742 | 7117 ft | 299 kts | 12° |
| 2026-05-04 03:36 | 40.65793 | -80.27959 | 7712 ft | 301 kts | 12° |
| 2026-05-04 03:36 | 40.67819 | -80.27146 | 8320 ft | 303 kts | 13° |
| 2026-05-04 03:36 | 40.69839 | -80.26326 | 8922 ft | 305 kts | 13° |
| 2026-05-04 03:37 | 40.71874 | -80.25496 | 9511 ft | 306 kts | 13° |
| 2026-05-04 03:37 | 40.73934 | -80.24656 | 10098 ft | 308 kts | 13° |
| 2026-05-04 03:37 | 40.76015 | -80.23805 | 10462 ft | 317 kts | 13° |
| 2026-05-04 03:37 | 40.78192 | -80.22919 | 10705 ft | 330 kts | 13° |
| 2026-05-04 03:38 | 40.80427 | -80.21992 | 10924 ft | 343 kts | 17° |
| 2026-05-04 03:38 | 40.82546 | -80.20707 | 11163 ft | 358 kts | 27° |
| 2026-05-04 03:38 | 40.84620 | -80.18754 | 11409 ft | 374 kts | 37° |
| 2026-05-04 03:38 | 40.86612 | -80.16434 | 11636 ft | 386 kts | 39° |
| 2026-05-04 03:39 | 40.88612 | -80.14023 | 11999 ft | 393 kts | 40° |
| 2026-05-04 03:39 | 40.90330 | -80.11944 | 12486 ft | 395 kts | 40° |
| 2026-05-04 03:39 | 40.92361 | -80.09496 | 13067 ft | 397 kts | 40° |
| 2026-05-04 03:39 | 40.94227 | -80.07256 | 13576 ft | 400 kts | 39° |
| 2026-05-04 03:40 | 40.96072 | -80.05047 | 14028 ft | 402 kts | 39° |
| 2026-05-04 03:40 | 40.97276 | -80.03606 | 14297 ft | 404 kts | 39° |
| 2026-05-04 03:40 | 40.98819 | -80.01762 | 14670 ft | 406 kts | 39° |
| 2026-05-04 03:40 | 41.00746 | -79.99457 | 15117 ft | 408 kts | 39° |
| 2026-05-04 03:41 | 41.02631 | -79.97203 | 15544 ft | 410 kts | 39° |
| 2026-05-04 03:41 | 41.04455 | -79.95020 | 15957 ft | 412 kts | 39° |
| 2026-05-04 03:41 | 41.06546 | -79.92517 | 16415 ft | 415 kts | 39° |
| 2026-05-04 03:41 | 41.08726 | -79.89905 | 16882 ft | 418 kts | 39° |
| 2026-05-04 03:42 | 41.10927 | -79.87267 | 17348 ft | 420 kts | 39° |
| 2026-05-04 03:42 | 41.13135 | -79.84618 | 17806 ft | 423 kts | 39° |
| 2026-05-04 03:42 | 41.15086 | -79.82276 | 18209 ft | 425 kts | 39° |
| 2026-05-04 03:42 | 41.17302 | -79.79612 | 18611 ft | 428 kts | 39° |
| 2026-05-04 03:43 | 41.19226 | -79.77297 | 18970 ft | 430 kts | 39° |
| 2026-05-04 03:43 | 41.21065 | -79.75085 | 19282 ft | 432 kts | 39° |
| 2026-05-04 03:43 | 41.22148 | -79.73780 | 19479 ft | 433 kts | 39° |
| 2026-05-04 03:43 | 41.24087 | -79.71442 | 19826 ft | 435 kts | 39° |
| 2026-05-04 03:44 | 41.25502 | -79.69734 | 20066 ft | 436 kts | 39° |
| 2026-05-04 03:44 | 41.27195 | -79.67691 | 20377 ft | 438 kts | 39° |
| 2026-05-04 03:44 | 41.28889 | -79.65643 | 20674 ft | 440 kts | 39° |
| 2026-05-04 03:44 | 41.30560 | -79.63622 | 20947 ft | 441 kts | 39° |
| 2026-05-04 03:45 | 41.31987 | -79.61895 | 21196 ft | 443 kts | 39° |
| 2026-05-04 03:45 | 41.33711 | -79.59807 | 21485 ft | 444 kts | 39° |
| 2026-05-04 03:45 | 41.35547 | -79.57584 | 21784 ft | 446 kts | 39° |
| 2026-05-04 03:45 | 41.37446 | -79.55280 | 22105 ft | 448 kts | 39° |
| 2026-05-04 03:46 | 41.39618 | -79.52643 | 22432 ft | 450 kts | 39° |
| 2026-05-04 03:46 | 41.41361 | -79.50524 | 22729 ft | 452 kts | 38° |
| 2026-05-04 03:46 | 41.42785 | -79.48793 | 22956 ft | 453 kts | 39° |
| 2026-05-04 03:46 | 41.45177 | -79.45883 | 23321 ft | 456 kts | 38° |
| 2026-05-04 03:47 | 41.46932 | -79.43746 | 23581 ft | 457 kts | 38° |
| 2026-05-04 03:47 | 41.49692 | -79.40379 | 23926 ft | 460 kts | 38° |
| 2026-05-04 03:47 | 41.51466 | -79.38215 | 24148 ft | 461 kts | 38° |
| 2026-05-04 03:47 | 41.53854 | -79.35297 | 24440 ft | 463 kts | 38° |
| 2026-05-04 03:48 | 41.55814 | -79.32899 | 24683 ft | 465 kts | 38° |
| 2026-05-04 03:48 | 41.58101 | -79.30099 | 24944 ft | 467 kts | 38° |
| 2026-05-04 03:48 | 41.60235 | -79.27484 | 25205 ft | 469 kts | 38° |
| 2026-05-04 03:48 | 41.62050 | -79.25259 | 25434 ft | 470 kts | 38° |
| 2026-05-04 03:49 | 41.63724 | -79.23114 | 25625 ft | 473 kts | 41° |
| 2026-05-04 03:49 | 41.64606 | -79.21904 | 25723 ft | 474 kts | 43° |
| 2026-05-04 03:49 | 41.65452 | -79.20678 | 25833 ft | 476 kts | 44° |
| 2026-05-04 03:49 | 41.66398 | -79.19227 | 25946 ft | 477 kts | 46° |
| 2026-05-04 03:50 | 41.67494 | -79.17419 | 26081 ft | 480 kts | 49° |
| 2026-05-04 03:50 | 41.68602 | -79.15439 | 26244 ft | 482 kts | 50° |
| 2026-05-04 03:50 | 41.69745 | -79.13304 | 26393 ft | 483 kts | 51° |
| 2026-05-04 03:50 | 41.70864 | -79.11161 | 26556 ft | 485 kts | 52° |
| 2026-05-04 03:51 | 41.72230 | -79.08519 | 26728 ft | 486 kts | 52° |
| 2026-05-04 03:51 | 41.74313 | -79.04482 | 27002 ft | 488 kts | 52° |
| 2026-05-04 03:51 | 41.75414 | -79.02349 | 27143 ft | 489 kts | 52° |
| 2026-05-04 03:51 | 41.76078 | -79.01067 | 27240 ft | 490 kts | 52° |
| 2026-05-04 03:52 | 41.77008 | -78.99272 | 27369 ft | 491 kts | 52° |
| 2026-05-04 03:52 | 41.78295 | -78.96791 | 27536 ft | 492 kts | 51° |
| 2026-05-04 03:52 | 41.79456 | -78.94556 | 27688 ft | 493 kts | 51° |
| 2026-05-04 03:52 | 41.79906 | -78.93691 | 27750 ft | 494 kts | 51° |
| 2026-05-04 03:53 | 41.80702 | -78.92159 | 27848 ft | 494 kts | 51° |
| 2026-05-04 03:53 | 41.81577 | -78.90474 | 27975 ft | 495 kts | 51° |
| 2026-05-04 03:53 | 41.82612 | -78.88485 | 28114 ft | 496 kts | 51° |
| 2026-05-04 03:53 | 41.83680 | -78.86429 | 28230 ft | 497 kts | 51° |
| 2026-05-04 03:54 | 41.84855 | -78.84169 | 28413 ft | 497 kts | 51° |
| 2026-05-04 03:54 | 41.85961 | -78.82040 | 28595 ft | 497 kts | 51° |
| 2026-05-04 03:54 | 41.86855 | -78.80315 | 28787 ft | 496 kts | 51° |
| 2026-05-04 03:55 | 41.88269 | -78.77589 | 29034 ft | 495 kts | 51° |
| 2026-05-04 03:55 | 41.88869 | -78.76430 | 29193 ft | 495 kts | 51° |
| 2026-05-04 03:55 | 41.90000 | -78.74245 | 29396 ft | 494 kts | 51° |
| 2026-05-04 03:56 | 41.91198 | -78.71932 | 29572 ft | 495 kts | 51° |
| 2026-05-04 03:56 | 41.92296 | -78.69810 | 29731 ft | 496 kts | 51° |
| 2026-05-04 03:56 | 41.93340 | -78.67790 | 29837 ft | 497 kts | 51° |
| 2026-05-04 03:57 | 41.94145 | -78.66233 | 29927 ft | 497 kts | 51° |
| 2026-05-04 03:57 | 41.95589 | -78.63439 | 30064 ft | 499 kts | 51° |
| 2026-05-04 03:57 | 41.96741 | -78.61206 | 30183 ft | 499 kts | 51° |
| 2026-05-04 03:57 | 41.97935 | -78.58890 | 30310 ft | 500 kts | 51° |
| 2026-05-04 03:58 | 42.00522 | -78.53867 | 30566 ft | 501 kts | 52° |
| 2026-05-04 03:58 | 42.01797 | -78.51389 | 30716 ft | 502 kts | 52° |
| 2026-05-04 03:58 | 42.02814 | -78.49409 | 30797 ft | 503 kts | 52° |
| 2026-05-04 03:59 | 42.04857 | -78.45431 | 30952 ft | 504 kts | 52° |
| 2026-05-04 03:59 | 42.06609 | -78.42014 | 30937 ft | 505 kts | 52° |
| 2026-05-04 04:00 | 42.08110 | -78.39083 | 30926 ft | 505 kts | 52° |
| 2026-05-04 04:00 | 42.10363 | -78.34678 | 30923 ft | 505 kts | 51° |
| 2026-05-04 04:01 | 42.13128 | -78.29257 | 30932 ft | 505 kts | 52° |
| 2026-05-04 04:01 | 42.15199 | -78.25194 | 30922 ft | 505 kts | 52° |
| 2026-05-04 04:02 | 42.16826 | -78.21998 | 30925 ft | 505 kts | 52° |
| 2026-05-04 04:02 | 42.18567 | -78.18577 | 30926 ft | 505 kts | 52° |
| 2026-05-04 04:03 | 42.21439 | -78.12924 | 30944 ft | 505 kts | 52° |
| 2026-05-04 04:03 | 42.24792 | -78.06310 | 30942 ft | 505 kts | 52° |
| 2026-05-04 04:04 | 42.27136 | -78.01677 | 30945 ft | 505 kts | 52° |
| 2026-05-04 04:04 | 42.29720 | -77.96564 | 30947 ft | 505 kts | 52° |
| 2026-05-04 04:05 | 42.32311 | -77.91427 | 30950 ft | 506 kts | 52° |
| 2026-05-04 04:05 | 42.34576 | -77.86929 | 30949 ft | 506 kts | 52° |
| 2026-05-04 04:06 | 42.38159 | -77.79798 | 30916 ft | 506 kts | 52° |
| 2026-05-04 04:06 | 42.40730 | -77.74674 | 30931 ft | 506 kts | 52° |
| 2026-05-04 04:07 | 42.42825 | -77.70490 | 30913 ft | 506 kts | 52° |
| 2026-05-04 04:07 | 42.46567 | -77.63005 | 30910 ft | 506 kts | 52° |
| 2026-05-04 04:08 | 42.49025 | -77.58077 | 30917 ft | 506 kts | 52° |
| 2026-05-04 04:08 | 42.51712 | -77.52680 | 30921 ft | 506 kts | 52° |
| 2026-05-04 04:09 | 42.54113 | -77.47847 | 30920 ft | 506 kts | 53° |
| 2026-05-04 04:09 | 42.57902 | -77.40208 | 30922 ft | 507 kts | 53° |
| 2026-05-04 04:10 | 42.59598 | -77.36781 | 30921 ft | 507 kts | 53° |
| 2026-05-04 04:10 | 42.63722 | -77.28436 | 30913 ft | 507 kts | 53° |
| 2026-05-04 04:11 | 42.66359 | -77.23085 | 30904 ft | 507 kts | 53° |
| 2026-05-04 04:11 | 42.69899 | -77.15889 | 30903 ft | 508 kts | 53° |
| 2026-05-04 04:12 | 42.73850 | -77.07837 | 30905 ft | 508 kts | 53° |
| 2026-05-04 04:12 | 42.77845 | -76.99676 | 30902 ft | 509 kts | 53° |
| 2026-05-04 04:13 | 42.81775 | -76.91626 | 30903 ft | 509 kts | 53° |
| 2026-05-04 04:13 | 42.85715 | -76.83531 | 30904 ft | 509 kts | 53° |
| 2026-05-04 04:14 | 42.89619 | -76.75489 | 30910 ft | 510 kts | 53° |
| 2026-05-04 04:14 | 42.93581 | -76.67306 | 30911 ft | 510 kts | 53° |
| 2026-05-04 04:15 | 42.97518 | -76.59150 | 30895 ft | 510 kts | 53° |
| 2026-05-04 04:15 | 43.01444 | -76.50994 | 30911 ft | 510 kts | 54° |
| 2026-05-04 04:16 | 43.04682 | -76.44249 | 30893 ft | 510 kts | 54° |
| 2026-05-04 04:16 | 43.08612 | -76.36043 | 30891 ft | 510 kts | 54° |
| 2026-05-04 04:17 | 43.12540 | -76.27814 | 30886 ft | 511 kts | 54° |
| 2026-05-04 04:17 | 43.16376 | -76.19579 | 30884 ft | 512 kts | 57° |
| 2026-05-04 04:18 | 43.19861 | -76.11015 | 30884 ft | 512 kts | 59° |
| 2026-05-04 04:18 | 43.23294 | -76.02359 | 30886 ft | 513 kts | 59° |
| 2026-05-04 04:19 | 43.26719 | -75.93712 | 30890 ft | 512 kts | 59° |
| 2026-05-04 04:19 | 43.30136 | -75.85081 | 30894 ft | 512 kts | 59° |
| 2026-05-04 04:20 | 43.33380 | -75.76868 | 30909 ft | 513 kts | 59° |
| 2026-05-04 04:20 | 43.36359 | -75.69306 | 30911 ft | 513 kts | 59° |
| 2026-05-04 04:21 | 43.39804 | -75.60533 | 30912 ft | 513 kts | 59° |
| 2026-05-04 04:21 | 43.43235 | -75.51773 | 30905 ft | 514 kts | 59° |
| 2026-05-04 04:22 | 43.46646 | -75.43036 | 30908 ft | 515 kts | 60° |
| 2026-05-04 04:22 | 43.50047 | -75.34300 | 30906 ft | 515 kts | 60° |
| 2026-05-04 04:23 | 43.53444 | -75.25546 | 30906 ft | 516 kts | 60° |
| 2026-05-04 04:23 | 43.56748 | -75.17007 | 30904 ft | 516 kts | 60° |
| 2026-05-04 04:24 | 43.60129 | -75.08241 | 30906 ft | 517 kts | 60° |
| 2026-05-04 04:24 | 43.63531 | -74.99398 | 30901 ft | 518 kts | 60° |
| 2026-05-04 04:25 | 43.66920 | -74.90553 | 30898 ft | 519 kts | 61° |
| 2026-05-04 04:25 | 43.70294 | -74.81722 | 30898 ft | 519 kts | 61° |
| 2026-05-04 04:26 | 43.73683 | -74.72824 | 30892 ft | 520 kts | 61° |
| 2026-05-04 04:26 | 43.77055 | -74.63943 | 30889 ft | 521 kts | 61° |
| 2026-05-04 04:27 | 43.80419 | -74.55051 | 30885 ft | 522 kts | 61° |
| 2026-05-04 04:27 | 43.83808 | -74.46069 | 30887 ft | 522 kts | 62° |
| 2026-05-04 04:28 | 43.87175 | -74.37115 | 30883 ft | 523 kts | 62° |
| 2026-05-04 04:28 | 43.90548 | -74.28116 | 30878 ft | 524 kts | 62° |
| 2026-05-04 04:29 | 43.93945 | -74.19022 | 30875 ft | 525 kts | 62° |
| 2026-05-04 04:29 | 43.97328 | -74.09937 | 30867 ft | 525 kts | 62° |
| 2026-05-04 04:30 | 44.00688 | -74.00884 | 30854 ft | 526 kts | 62° |
| 2026-05-04 04:30 | 44.04041 | -73.91822 | 30853 ft | 527 kts | 62° |
| 2026-05-04 04:31 | 44.07403 | -73.82705 | 30846 ft | 528 kts | 63° |
| 2026-05-04 04:31 | 44.10792 | -73.73484 | 30843 ft | 529 kts | 63° |
| 2026-05-04 04:32 | 44.14132 | -73.64366 | 30843 ft | 530 kts | 63° |
| 2026-05-04 04:32 | 44.17481 | -73.55195 | 30846 ft | 531 kts | 63° |
| 2026-05-04 04:33 | 44.20821 | -73.46016 | 30849 ft | 531 kts | 63° |
| 2026-05-04 04:33 | 44.24184 | -73.36744 | 30847 ft | 532 kts | 63° |
| 2026-05-04 04:34 | 44.27532 | -73.27481 | 30841 ft | 532 kts | 63° |
| 2026-05-04 04:34 | 44.30876 | -73.18198 | 30841 ft | 533 kts | 64° |
| 2026-05-04 04:35 | 44.34205 | -73.08926 | 30839 ft | 534 kts | 64° |
| 2026-05-04 04:35 | 44.37512 | -72.99684 | 30845 ft | 534 kts | 64° |
| 2026-05-04 04:36 | 44.40841 | -72.90349 | 30845 ft | 535 kts | 64° |
| 2026-05-04 04:36 | 44.44163 | -72.80998 | 30848 ft | 536 kts | 64° |
| 2026-05-04 04:37 | 44.50809 | -72.62197 | 30842 ft | 538 kts | 64° |
| 2026-05-04 04:38 | 44.54133 | -72.52745 | 30839 ft | 538 kts | 65° |
| 2026-05-04 04:38 | 44.57445 | -72.43293 | 30841 ft | 539 kts | 65° |
| 2026-05-04 04:39 | 44.60752 | -72.33826 | 30838 ft | 540 kts | 65° |
| 2026-05-04 04:39 | 44.64085 | -72.24248 | 30841 ft | 541 kts | 65° |
| 2026-05-04 04:40 | 44.67401 | -72.14685 | 30838 ft | 542 kts | 65° |
| 2026-05-04 04:40 | 44.70703 | -72.05127 | 30836 ft | 543 kts | 65° |
| 2026-05-04 04:41 | 44.74003 | -71.95541 | 30834 ft | 544 kts | 65° |
| 2026-05-04 04:41 | 44.77331 | -71.85834 | 30835 ft | 545 kts | 65° |
| 2026-05-04 04:42 | 44.80686 | -71.76041 | 30840 ft | 546 kts | 65° |
| 2026-05-04 04:42 | 44.84476 | -71.66684 | 30844 ft | 548 kts | 58° |
| 2026-05-04 04:43 | 44.88739 | -71.57677 | 30845 ft | 548 kts | 56° |
| 2026-05-04 04:43 | 44.93033 | -71.48704 | 30842 ft | 548 kts | 56° |
| 2026-05-04 04:44 | 44.97286 | -71.39741 | 30836 ft | 549 kts | 57° |
| 2026-05-04 04:44 | 45.01567 | -71.30661 | 30838 ft | 549 kts | 57° |
| 2026-05-04 04:45 | 45.05853 | -71.21530 | 30830 ft | 550 kts | 57° |
| 2026-05-04 04:47 | 45.20725 | -70.89615 | 30819 ft | 552 kts | 57° |
| 2026-05-04 04:47 | 45.25002 | -70.80369 | 30818 ft | 554 kts | 57° |
| 2026-05-04 04:48 | 45.29327 | -70.70989 | 30808 ft | 554 kts | 58° |
| 2026-05-04 04:49 | 45.40097 | -70.47500 | 30796 ft | 557 kts | 58° |
| 2026-05-04 04:49 | 45.44306 | -70.38265 | 30789 ft | 558 kts | 58° |
| 2026-05-04 04:50 | 45.48531 | -70.28969 | 30780 ft | 559 kts | 58° |
| 2026-05-04 04:50 | 45.52755 | -70.19641 | 30779 ft | 559 kts | 58° |
| 2026-05-04 04:51 | 45.56987 | -70.10263 | 30772 ft | 560 kts | 58° |
| 2026-05-04 04:51 | 45.61214 | -70.00868 | 30774 ft | 561 kts | 58° |
| 2026-05-04 04:52 | 45.65444 | -69.91433 | 30772 ft | 562 kts | 58° |
| 2026-05-04 04:52 | 45.69633 | -69.82057 | 30758 ft | 562 kts | 59° |
| 2026-05-04 04:53 | 45.73858 | -69.72572 | 30761 ft | 563 kts | 59° |
| 2026-05-04 04:53 | 45.78084 | -69.63053 | 30757 ft | 563 kts | 59° |
| 2026-05-04 04:54 | 45.82302 | -69.53516 | 30750 ft | 564 kts | 59° |
| 2026-05-04 04:54 | 45.86502 | -69.43991 | 30754 ft | 565 kts | 59° |
| 2026-05-04 04:55 | 45.90696 | -69.34445 | 30754 ft | 566 kts | 59° |
| 2026-05-04 04:55 | 45.94922 | -69.24794 | 30757 ft | 566 kts | 59° |
| 2026-05-04 04:56 | 45.99151 | -69.15102 | 30749 ft | 567 kts | 59° |
| 2026-05-04 04:56 | 46.03381 | -69.05372 | 30749 ft | 568 kts | 59° |
| 2026-05-04 04:57 | 46.07599 | -68.95639 | 30741 ft | 569 kts | 59° |
| 2026-05-04 04:57 | 46.11813 | -68.85881 | 30732 ft | 569 kts | 59° |
| 2026-05-04 04:58 | 46.16024 | -68.76094 | 30727 ft | 570 kts | 59° |
| 2026-05-04 04:58 | 46.20223 | -68.66302 | 30717 ft | 571 kts | 59° |
| 2026-05-04 04:59 | 46.24428 | -68.56461 | 30710 ft | 572 kts | 59° |
| 2026-05-04 04:59 | 46.28633 | -68.46584 | 30710 ft | 573 kts | 59° |
| 2026-05-04 05:00 | 46.32806 | -68.36749 | 30691 ft | 573 kts | 59° |
| 2026-05-04 05:01 | 46.39084 | -68.21886 | 30696 ft | 574 kts | 59° |
| 2026-05-04 05:01 | 46.43267 | -68.11936 | 30694 ft | 573 kts | 59° |
| 2026-05-04 05:02 | 46.47471 | -68.01903 | 30690 ft | 573 kts | 60° |
| 2026-05-04 05:02 | 46.51626 | -67.91947 | 30686 ft | 572 kts | 60° |
| 2026-05-04 05:03 | 46.55793 | -67.81921 | 30684 ft | 572 kts | 60° |
| 2026-05-04 05:04 | 46.63352 | -67.63651 | 30666 ft | 570 kts | 60° |
| 2026-05-04 05:04 | 46.68093 | -67.52130 | 30660 ft | 569 kts | 60° |
| 2026-05-04 05:06 | 46.81492 | -67.19358 | 32534 ft | 500 kts | 60° |
| 2026-05-04 05:06 | 46.83285 | -67.14995 | 33177 ft | 486 kts | 60° |
| 2026-05-04 05:06 | 46.85041 | -67.10720 | 33688 ft | 480 kts | 60° |
| 2026-05-04 05:07 | 46.86759 | -67.06539 | 34045 ft | 475 kts | 60° |
| 2026-05-04 05:07 | 46.88433 | -67.02464 | 34374 ft | 471 kts | 60° |
| 2026-05-04 05:07 | 46.90130 | -66.98331 | 34645 ft | 467 kts | 60° |
| 2026-05-04 05:09 | 47.03359 | -66.66063 | 36023 ft | 452 kts | 60° |
| 2026-05-04 05:09 | 47.04953 | -66.62163 | 36106 ft | 452 kts | 62° |
| 2026-05-04 05:10 | 47.06260 | -66.57818 | 36041 ft | 450 kts | 79° |
| 2026-05-04 05:10 | 47.06631 | -66.53365 | 36042 ft | 444 kts | 96° |
| 2026-05-04 05:10 | 47.05567 | -66.44380 | 35748 ft | 453 kts | 97° |
| 2026-05-04 05:11 | 47.05475 | -66.39640 | 35606 ft | 461 kts | 88° |
| 2026-05-04 05:11 | 47.05819 | -66.34974 | 35603 ft | 465 kts | 82° |
| 2026-05-04 05:11 | 47.07306 | -66.25614 | 35594 ft | 472 kts | 75° |
| 2026-05-04 05:12 | 47.09289 | -66.16352 | 35588 ft | 477 kts | 73° |
| 2026-05-04 05:12 | 47.11456 | -66.07041 | 35583 ft | 482 kts | 72° |
| 2026-05-04 05:13 | 47.13685 | -65.97675 | 35582 ft | 487 kts | 72° |
| 2026-05-04 05:13 | 47.15943 | -65.88217 | 35572 ft | 492 kts | 72° |
| 2026-05-04 05:14 | 47.18227 | -65.78633 | 35568 ft | 496 kts | 72° |
| 2026-05-04 05:14 | 47.20502 | -65.69048 | 35559 ft | 497 kts | 72° |
| 2026-05-04 05:15 | 47.22776 | -65.59428 | 35554 ft | 497 kts | 72° |
| 2026-05-04 05:15 | 47.25042 | -65.49797 | 35542 ft | 496 kts | 72° |
| 2026-05-04 05:16 | 47.27303 | -65.40149 | 35531 ft | 496 kts | 73° |
| 2026-05-04 05:16 | 47.29553 | -65.30501 | 35521 ft | 496 kts | 73° |
| 2026-05-04 05:17 | 47.31788 | -65.20876 | 35509 ft | 495 kts | 73° |
| 2026-05-04 05:17 | 47.34010 | -65.11260 | 35495 ft | 496 kts | 73° |
| 2026-05-04 05:18 | 47.36228 | -65.01618 | 35483 ft | 496 kts | 73° |
| 2026-05-04 05:18 | 47.38438 | -64.91969 | 35471 ft | 496 kts | 73° |
| 2026-05-04 05:19 | 47.40641 | -64.82311 | 35462 ft | 496 kts | 73° |
| 2026-05-04 05:19 | 47.42834 | -64.72651 | 35455 ft | 496 kts | 74° |
| 2026-05-04 05:20 | 47.45023 | -64.62965 | 35446 ft | 496 kts | 74° |
| 2026-05-04 05:20 | 47.47202 | -64.53278 | 35439 ft | 496 kts | 74° |
| 2026-05-04 05:21 | 47.49375 | -64.43586 | 35427 ft | 496 kts | 74° |
| 2026-05-04 05:21 | 47.51539 | -64.33889 | 35413 ft | 495 kts | 75° |
| 2026-05-04 05:22 | 47.53678 | -64.24261 | 35400 ft | 495 kts | 75° |
| 2026-05-04 05:22 | 47.55821 | -64.14552 | 35391 ft | 495 kts | 75° |
| 2026-05-04 05:23 | 47.57954 | -64.04854 | 35378 ft | 494 kts | 75° |
| 2026-05-04 05:23 | 47.60080 | -63.95138 | 35367 ft | 493 kts | 75° |
| 2026-05-04 05:24 | 47.62186 | -63.85461 | 35350 ft | 493 kts | 76° |
| 2026-05-04 05:24 | 47.64271 | -63.75838 | 35337 ft | 492 kts | 76° |
| 2026-05-04 05:25 | 47.66364 | -63.66144 | 35326 ft | 492 kts | 76° |
| 2026-05-04 05:25 | 47.68441 | -63.56474 | 35318 ft | 491 kts | 76° |
| 2026-05-04 05:26 | 47.70514 | -63.46777 | 35311 ft | 491 kts | 76° |
| 2026-05-04 05:26 | 47.72561 | -63.37159 | 35298 ft | 490 kts | 77° |
| 2026-05-04 05:28 | 47.80702 | -62.98448 | 35255 ft | 490 kts | 77° |
| 2026-05-04 05:29 | 47.82720 | -62.88731 | 35248 ft | 490 kts | 77° |
| 2026-05-04 05:29 | 47.84730 | -62.79007 | 35240 ft | 490 kts | 77° |
| 2026-05-04 05:31 | 47.92669 | -62.40104 | 35213 ft | 490 kts | 78° |
| 2026-05-04 05:32 | 47.94636 | -62.30347 | 35210 ft | 490 kts | 77° |
| 2026-05-04 05:33 | 47.97562 | -62.15752 | 35198 ft | 490 kts | 78° |
| 2026-05-04 05:33 | 47.99509 | -62.05982 | 35199 ft | 490 kts | 78° |
| 2026-05-04 05:34 | 48.01452 | -61.96175 | 35194 ft | 490 kts | 78° |
| 2026-05-04 05:34 | 48.03385 | -61.86370 | 35190 ft | 490 kts | 78° |
| 2026-05-04 05:35 | 48.05307 | -61.76578 | 35186 ft | 490 kts | 78° |
| 2026-05-04 05:35 | 48.07218 | -61.66788 | 35189 ft | 490 kts | 78° |
| 2026-05-04 05:36 | 48.09108 | -61.57060 | 35182 ft | 489 kts | 78° |
| 2026-05-04 05:36 | 48.11001 | -61.47260 | 35187 ft | 489 kts | 78° |
| 2026-05-04 05:37 | 48.12885 | -61.37462 | 35187 ft | 488 kts | 78° |
| 2026-05-04 05:37 | 48.14758 | -61.27665 | 35187 ft | 488 kts | 78° |
| 2026-05-04 05:38 | 48.17544 | -61.13004 | 35186 ft | 489 kts | 78° |
| 2026-05-04 05:38 | 48.19402 | -61.03165 | 35185 ft | 490 kts | 78° |
| 2026-05-04 05:39 | 48.22180 | -60.88356 | 35187 ft | 491 kts | 79° |
| 2026-05-04 05:40 | 48.24930 | -60.73574 | 35190 ft | 492 kts | 79° |
| 2026-05-04 05:40 | 48.26762 | -60.63663 | 35190 ft | 492 kts | 79° |
| 2026-05-04 05:41 | 48.28587 | -60.53737 | 35194 ft | 491 kts | 79° |
| 2026-05-04 05:41 | 48.30389 | -60.43884 | 35199 ft | 490 kts | 79° |
| 2026-05-04 05:42 | 48.32189 | -60.33986 | 35203 ft | 490 kts | 80° |
| 2026-05-04 05:42 | 48.33977 | -60.24098 | 35201 ft | 489 kts | 80° |
| 2026-05-04 05:43 | 48.35756 | -60.14203 | 35209 ft | 489 kts | 80° |
| 2026-05-04 05:45 | 48.42759 | -59.74734 | 35216 ft | 488 kts | 81° |
| 2026-05-04 05:47 | 48.49634 | -59.35109 | 35225 ft | 488 kts | 82° |
| 2026-05-04 05:47 | 48.51323 | -59.25241 | 35227 ft | 487 kts | 82° |
| 2026-05-04 05:48 | 48.53011 | -59.15322 | 35234 ft | 487 kts | 82° |
| 2026-05-04 05:48 | 48.54689 | -59.05401 | 35230 ft | 487 kts | 82° |
| 2026-05-04 05:49 | 48.56363 | -58.95447 | 35240 ft | 486 kts | 82° |
| 2026-05-04 05:49 | 48.58021 | -58.85531 | 35242 ft | 486 kts | 82° |
| 2026-05-04 05:51 | 48.64545 | -58.45933 | 35269 ft | 484 kts | 83° |
| 2026-05-04 05:52 | 48.66154 | -58.36018 | 35279 ft | 483 kts | 83° |
| 2026-05-04 05:52 | 48.67741 | -58.26186 | 35285 ft | 483 kts | 83° |
| 2026-05-04 05:54 | 48.73799 | -57.88106 | 35330 ft | 482 kts | 83° |
| 2026-05-04 05:55 | 48.75353 | -57.78195 | 35342 ft | 483 kts | 83° |
| 2026-05-04 05:55 | 48.76913 | -57.68185 | 35348 ft | 483 kts | 83° |
| 2026-05-04 05:56 | 48.78456 | -57.58217 | 35366 ft | 485 kts | 84° |
| 2026-05-04 05:56 | 48.80033 | -57.47978 | 35376 ft | 485 kts | 84° |
| 2026-05-04 05:57 | 48.81577 | -57.37881 | 35381 ft | 486 kts | 84° |
| 2026-05-04 05:57 | 48.83125 | -57.27695 | 35382 ft | 487 kts | 84° |
| 2026-05-04 05:58 | 48.84643 | -57.17642 | 35383 ft | 487 kts | 84° |
| 2026-05-04 05:58 | 48.86158 | -57.07548 | 35391 ft | 488 kts | 84° |
| 2026-05-04 05:59 | 48.87671 | -56.97407 | 35399 ft | 488 kts | 84° |
| 2026-05-04 05:59 | 48.89167 | -56.87310 | 35401 ft | 489 kts | 84° |
| 2026-05-04 06:00 | 48.90661 | -56.77157 | 35409 ft | 489 kts | 84° |
| 2026-05-04 06:00 | 48.92153 | -56.66951 | 35421 ft | 490 kts | 84° |
| 2026-05-04 06:01 | 48.93633 | -56.56751 | 35438 ft | 490 kts | 85° |
| 2026-05-04 06:03 | 48.99527 | -56.15463 | 35460 ft | 492 kts | 85° |
| 2026-05-04 06:05 | 49.05974 | -55.68954 | 35481 ft | 493 kts | 85° |
| 2026-05-04 06:06 | 49.07372 | -55.58664 | 35493 ft | 493 kts | 85° |
| 2026-05-04 06:06 | 49.08784 | -55.48208 | 35496 ft | 494 kts | 86° |
| 2026-05-04 06:07 | 49.10171 | -55.37854 | 35508 ft | 494 kts | 86° |
| 2026-05-04 06:07 | 49.11553 | -55.27467 | 35506 ft | 494 kts | 86° |
| 2026-05-04 06:08 | 49.12927 | -55.17059 | 35522 ft | 494 kts | 86° |
| 2026-05-04 06:08 | 49.14294 | -55.06633 | 35521 ft | 495 kts | 86° |
| 2026-05-04 06:09 | 49.15649 | -54.96220 | 35534 ft | 495 kts | 86° |
| 2026-05-04 06:11 | 49.21011 | -54.54218 | 35556 ft | 497 kts | 86° |
| 2026-05-04 06:13 | 49.26213 | -54.12185 | 35589 ft | 500 kts | 86° |
| 2026-05-04 06:14 | 49.30667 | -53.75116 | 35618 ft | 502 kts | 86° |
| 2026-05-04 06:15 | 49.31912 | -53.64552 | 35620 ft | 502 kts | 86° |
| 2026-05-04 06:15 | 49.33147 | -53.53993 | 35634 ft | 503 kts | 86° |
| 2026-05-04 06:16 | 49.34367 | -53.43473 | 35636 ft | 503 kts | 86° |
| 2026-05-04 06:16 | 49.35587 | -53.32872 | 35642 ft | 504 kts | 86° |
| 2026-05-04 06:17 | 49.36798 | -53.22250 | 35649 ft | 504 kts | 86° |
| 2026-05-04 06:17 | 49.37998 | -53.11640 | 35659 ft | 504 kts | 86° |
| 2026-05-04 06:18 | 49.39184 | -53.01065 | 35666 ft | 504 kts | 86° |
| 2026-05-04 06:20 | 49.43854 | -52.58472 | 35690 ft | 505 kts | 87° |
| 2026-05-04 06:21 | 49.46694 | -52.31794 | 35701 ft | 507 kts | 87° |
| 2026-05-04 06:22 | 49.47816 | -52.21068 | 35706 ft | 508 kts | 87° |
| 2026-05-04 06:25 | 49.63526 | -51.47556 | 35751 ft | 522 kts | 72° |
| 2026-05-04 06:26 | 49.66190 | -51.37100 | 35755 ft | 522 kts | 72° |
| 2026-05-04 06:26 | 49.68827 | -51.26705 | 35757 ft | 522 kts | 72° |
| 2026-05-04 06:27 | 49.75419 | -51.00507 | 35773 ft | 522 kts | 72° |
| 2026-05-04 06:28 | 49.78043 | -50.89992 | 35783 ft | 523 kts | 72° |
| 2026-05-04 06:28 | 49.80659 | -50.79459 | 35782 ft | 523 kts | 72° |
| 2026-05-04 06:29 | 49.83266 | -50.68915 | 35789 ft | 524 kts | 72° |
| 2026-05-04 06:29 | 49.85848 | -50.58415 | 35792 ft | 524 kts | 72° |
| 2026-05-04 06:30 | 49.88443 | -50.47813 | 35799 ft | 524 kts | 72° |
| 2026-05-04 06:30 | 49.91026 | -50.37211 | 35802 ft | 524 kts | 72° |
| 2026-05-04 06:31 | 49.93586 | -50.26651 | 35802 ft | 524 kts | 72° |
| 2026-05-04 06:31 | 49.96152 | -50.16013 | 35809 ft | 525 kts | 72° |
| 2026-05-04 06:33 | 50.06639 | -49.73563 | 35833 ft | 526 kts | 71° |
| 2026-05-04 06:34 | 50.09300 | -49.62921 | 35838 ft | 526 kts | 71° |
| 2026-05-04 06:34 | 50.11944 | -49.52274 | 35838 ft | 526 kts | 71° |
| 2026-05-04 06:36 | 50.22395 | -49.09649 | 35860 ft | 526 kts | 71° |
| 2026-05-04 06:37 | 50.24985 | -48.98953 | 35865 ft | 526 kts | 71° |
| 2026-05-04 06:37 | 50.27556 | -48.88289 | 35870 ft | 526 kts | 71° |
| 2026-05-04 06:38 | 50.30132 | -48.77548 | 35873 ft | 526 kts | 70° |
| 2026-05-04 06:40 | 50.40334 | -48.34502 | 35894 ft | 527 kts | 70° |
| 2026-05-04 06:40 | 50.42864 | -48.23692 | 35903 ft | 527 kts | 70° |
| 2026-05-04 06:41 | 50.45393 | -48.12831 | 35907 ft | 527 kts | 71° |
| 2026-05-04 06:41 | 50.47900 | -48.02005 | 35916 ft | 527 kts | 70° |
| 2026-05-04 06:42 | 50.50385 | -47.91219 | 35919 ft | 527 kts | 70° |
| 2026-05-04 06:44 | 50.59869 | -47.49559 | 35943 ft | 527 kts | 70° |
| 2026-05-04 06:44 | 50.62320 | -47.38661 | 35948 ft | 527 kts | 70° |
| 2026-05-04 06:45 | 50.64758 | -47.27758 | 35954 ft | 526 kts | 70° |
| 2026-05-04 06:45 | 50.67183 | -47.16856 | 35963 ft | 526 kts | 70° |
| 2026-05-04 06:46 | 50.69599 | -47.05945 | 35967 ft | 526 kts | 70° |
| 2026-05-04 06:46 | 50.71989 | -46.95089 | 35970 ft | 525 kts | 70° |
| 2026-05-04 06:48 | 50.81464 | -46.51480 | 35995 ft | 523 kts | 70° |
| 2026-05-04 06:50 | 50.90744 | -46.07855 | 36018 ft | 521 kts | 70° |
| 2026-05-04 06:51 | 50.93035 | -45.96938 | 36026 ft | 521 kts | 70° |
| 2026-05-04 06:51 | 50.95314 | -45.86020 | 36029 ft | 520 kts | 70° |
| 2026-05-04 06:52 | 50.97571 | -45.75143 | 36036 ft | 520 kts | 70° |
| 2026-05-04 06:52 | 50.99828 | -45.64212 | 36048 ft | 520 kts | 70° |
| 2026-05-04 06:53 | 51.02073 | -45.53276 | 36050 ft | 520 kts | 70° |
| 2026-05-04 06:53 | 51.04311 | -45.42319 | 36056 ft | 520 kts | 70° |
| 2026-05-04 06:54 | 51.06532 | -45.31374 | 36060 ft | 520 kts | 70° |
| 2026-05-04 06:54 | 51.08747 | -45.20402 | 36067 ft | 520 kts | 70° |
| 2026-05-04 06:55 | 51.10948 | -45.09440 | 36072 ft | 520 kts | 70° |
| 2026-05-04 06:55 | 51.13129 | -44.98521 | 36080 ft | 520 kts | 70° |
| 2026-05-04 06:57 | 51.21811 | -44.54415 | 36097 ft | 521 kts | 70° |
| 2026-05-04 06:58 | 51.23947 | -44.43406 | 36106 ft | 521 kts | 70° |
| 2026-05-04 06:58 | 51.26084 | -44.32334 | 36109 ft | 522 kts | 70° |
| 2026-05-04 06:59 | 51.28213 | -44.21233 | 36113 ft | 522 kts | 70° |
| 2026-05-04 06:59 | 51.30333 | -44.10112 | 36115 ft | 522 kts | 69° |
| 2026-05-04 07:01 | 51.38704 | -43.65554 | 36148 ft | 524 kts | 69° |
| 2026-05-04 07:02 | 51.40781 | -43.54330 | 36146 ft | 524 kts | 69° |
| 2026-05-04 07:02 | 51.42850 | -43.43083 | 36155 ft | 525 kts | 69° |
| 2026-05-04 07:03 | 51.44894 | -43.31904 | 36160 ft | 526 kts | 69° |
| 2026-05-04 07:03 | 51.46943 | -43.20628 | 36164 ft | 526 kts | 69° |
| 2026-05-04 07:04 | 51.48984 | -43.09327 | 36166 ft | 526 kts | 69° |
| 2026-05-04 07:04 | 51.51016 | -42.98005 | 36171 ft | 527 kts | 69° |
| 2026-05-04 07:05 | 51.53036 | -42.86676 | 36178 ft | 527 kts | 69° |
| 2026-05-04 07:05 | 51.55043 | -42.75351 | 36184 ft | 526 kts | 69° |
| 2026-05-04 07:06 | 51.58027 | -42.58379 | 36191 ft | 524 kts | 69° |
| 2026-05-04 07:07 | 51.59986 | -42.47149 | 36198 ft | 523 kts | 69° |
| 2026-05-04 07:09 | 51.67712 | -42.02162 | 36215 ft | 519 kts | 69° |
| 2026-05-04 07:09 | 51.69613 | -41.90905 | 36225 ft | 519 kts | 69° |
| 2026-05-04 07:10 | 51.71503 | -41.79648 | 36224 ft | 518 kts | 69° |
| 2026-05-04 07:12 | 51.78915 | -41.34776 | 36248 ft | 516 kts | 70° |
| 2026-05-04 07:12 | 51.80741 | -41.23531 | 36248 ft | 516 kts | 71° |
| 2026-05-04 07:13 | 51.82553 | -41.12302 | 36255 ft | 515 kts | 71° |
| 2026-05-04 07:13 | 51.84338 | -41.01160 | 36259 ft | 515 kts | 71° |
| 2026-05-04 07:14 | 51.88787 | -40.73060 | 36270 ft | 514 kts | 72° |
| 2026-05-04 07:15 | 51.90546 | -40.61814 | 36272 ft | 513 kts | 72° |
| 2026-05-04 07:15 | 51.92290 | -40.50585 | 36277 ft | 513 kts | 72° |
| 2026-05-04 07:16 | 51.94014 | -40.39405 | 36282 ft | 513 kts | 73° |
| 2026-05-04 07:16 | 51.95735 | -40.28162 | 36290 ft | 512 kts | 73° |
| 2026-05-04 07:17 | 51.97444 | -40.16906 | 36292 ft | 512 kts | 73° |
| 2026-05-04 07:17 | 51.99151 | -40.05666 | 36292 ft | 511 kts | 72° |
| 2026-05-04 07:18 | 52.01307 | -39.94751 | 36299 ft | 509 kts | 66° |
| 2026-05-04 07:18 | 52.03963 | -39.84085 | 36302 ft | 508 kts | 65° |
| 2026-05-04 07:19 | 52.06656 | -39.73432 | 36306 ft | 508 kts | 65° |
| 2026-05-04 07:19 | 52.09323 | -39.62788 | 36307 ft | 508 kts | 65° |
| 2026-05-04 07:20 | 52.11955 | -39.52196 | 36312 ft | 508 kts | 65° |
| 2026-05-04 07:20 | 52.14594 | -39.41517 | 36316 ft | 507 kts | 66° |
| 2026-05-04 07:22 | 52.25028 | -38.98754 | 36327 ft | 507 kts | 66° |
| 2026-05-04 07:23 | 52.27618 | -38.88011 | 36331 ft | 507 kts | 66° |
| 2026-05-04 07:23 | 52.30197 | -38.77256 | 36337 ft | 507 kts | 67° |
| 2026-05-04 07:24 | 52.32764 | -38.66502 | 36334 ft | 507 kts | 67° |
| 2026-05-04 07:24 | 52.35319 | -38.55742 | 36341 ft | 506 kts | 67° |